Westchester, IL (60154)

3:42 AM CDT on August 25, 2016 (GMT -0500)
AREA 51 | | Change Station

Elev 633 ft 41.86 °N, 87.87 °W | Updated 48 seconds ago

Light Rain
Light Rain
72.0 °F
Feels Like 72.0 °F
N
0.0
Wind Variable Wind from WSW
Gusts 0.0 mph

Today
High -- | Low -- °F
--% Chance of Precip.
Yesterday
High -- | Low -- °F
Precip. -- in
Pressure 29.94 in
Visibility 10.0 miles
Clouds Few 7000 ft
Scattered Clouds 9000 ft
Mostly Cloudy 12000 ft
Overcast 15000 ft
Dew Point 71 °F
Humidity 98%
Rainfall 0.09 in
Snow Depth Not available.
6:10 AM 7:35 PM
Waning Gibbous, 48% visible
METAR KMDW 250753Z 23006KT 10SM -RA FEW070 SCT090 BKN120 OVC150 24/22 A2997 RMK AO2 RAB50 SLP137 P0000 T02390217 $
Pressure 29.94 in
Visibility 10.0 miles
Clouds Few 7000 ft
Scattered Clouds 9000 ft
Mostly Cloudy 12000 ft
Overcast 15000 ft
Dew Point 71 °F
Humidity 98%
Rainfall 0.09 in
Snow Depth Not available.
6:10 AM 7:35 PM
Waning Gibbous, 48% visible
METAR KMDW 250753Z 23006KT 10SM -RA FEW070 SCT090 BKN120 OVC150 24/22 A2997 RMK AO2 RAB50 SLP137 P0000 T02390217 $

10-Day Weather Forecast

Almanac

Astronomy

Aug. 25, 2016 Rise Set
Actual Time
Civil Twilight
Nautical Twilight
Astronomical Twilight
Moon
Length of Visible Light
Length of Day
Tomorrow will be .
, % of the Moon is Illuminated

Today's Extremes

State Highs State Lows

Community

WunderPhotos

Upload Photos

1,934,814 photos uploaded!

WunderBlog® & News

Nearby

Air Quality

  Air Quality AQ Index Pollutant
Not available.

Snow Depth

Station Depth Elevation

Earthquake Activity

City Distance Mag. Time & Date
Minimum magnitude displayed is 2.5.

Coastal Water Temperatures

Place Temperature

Stations

Nearby Weather Stations

Station Location Temp. Windchill Dew Point Humidity Wind Precip. Elev Updated Type
                   

Watches & Warnings

There are currently no watches in effect.